createdAt,value
2019-01-21T00:00:23.456Z,0
2019-01-21T00:01:31.505Z,0
2019-01-21T00:02:39.563Z,0
2019-01-21T00:03:47.620Z,0
2019-01-21T00:04:55.676Z,0
2019-01-21T00:06:03.727Z,0
2019-01-21T00:07:11.787Z,0
2019-01-21T00:08:19.840Z,0
2019-01-21T00:09:27.893Z,0
2019-01-21T00:10:35.956Z,0
2019-01-21T00:11:43.988Z,0
2019-01-21T00:12:52.062Z,0
2019-01-21T00:14:00.098Z,0
2019-01-21T00:15:08.171Z,0
2019-01-21T00:16:16.268Z,0
2019-01-21T00:17:24.749Z,0
2019-01-21T00:18:32.714Z,0
2019-01-21T00:19:40.600Z,0
2019-01-21T00:20:48.438Z,0
2019-01-21T00:21:56.775Z,0
2019-01-21T00:23:04.753Z,0
2019-01-21T00:24:12.852Z,0
2019-01-21T00:25:20.921Z,0
2019-01-21T00:26:28.957Z,0
2019-01-21T00:27:37.030Z,0
2019-01-21T00:28:45.081Z,0
2019-01-21T00:29:53.052Z,0
2019-01-21T00:31:01.203Z,0
2019-01-21T00:32:09.208Z,0
2019-01-21T00:33:17.331Z,0
2019-01-21T00:34:25.331Z,0
2019-01-21T00:35:33.415Z,0
2019-01-21T00:36:41.430Z,0
2019-01-21T00:37:49.626Z,0
2019-01-21T00:38:57.577Z,0
2019-01-21T00:40:05.660Z,0
2019-01-21T00:41:13.438Z,0
2019-01-21T00:42:21.494Z,0
2019-01-21T00:43:29.555Z,0
2019-01-21T00:44:37.607Z,0
2019-01-21T00:45:45.663Z,0
2019-01-21T00:46:53.711Z,0
2019-01-21T00:48:01.774Z,0
2019-01-21T00:49:09.831Z,0
2019-01-21T00:50:17.885Z,0
2019-01-21T00:51:25.947Z,0
2019-01-21T00:52:33.961Z,0
2019-01-21T00:53:42.049Z,0
2019-01-21T00:54:51.044Z,0
2019-01-21T00:55:58.149Z,0
2019-01-21T00:57:06.256Z,0
2019-01-21T00:58:14.252Z,0
2019-01-21T00:59:22.336Z,0
2019-01-21T01:00:30.373Z,0
2019-01-21T01:01:38.437Z,0
2019-01-21T01:02:46.493Z,0
2019-01-21T01:03:54.508Z,0
2019-01-21T01:05:02.580Z,0
2019-01-21T01:06:10.644Z,0
2019-01-21T01:07:18.703Z,0
2019-01-21T01:08:26.761Z,0
2019-01-21T01:09:34.787Z,0
2019-01-21T01:10:42.860Z,0
2019-01-21T01:11:50.930Z,0
2019-01-21T01:12:58.974Z,0
2019-01-21T01:14:07.033Z,0
2019-01-21T01:15:15.085Z,0
2019-01-21T01:16:23.152Z,0
2019-01-21T01:17:37.069Z,0
2019-01-21T01:18:39.300Z,0
2019-01-21T01:19:47.307Z,0
2019-01-21T01:20:55.364Z,0
2019-01-21T01:22:03.415Z,0
2019-01-21T01:23:11.467Z,0
2019-01-21T01:24:19.573Z,0
2019-01-21T01:25:27.607Z,0
2019-01-21T01:26:35.629Z,0
2019-01-21T01:27:43.683Z,0
2019-01-21T01:28:51.739Z,0
2019-01-21T01:29:59.806Z,0
2019-01-21T01:31:07.848Z,0
2019-01-21T01:32:15.918Z,0
2019-01-21T01:33:23.941Z,0
2019-01-21T01:34:32.024Z,0
2019-01-21T01:35:40.068Z,0
2019-01-21T01:36:48.109Z,0
2019-01-21T01:37:56.186Z,0
2019-01-21T01:39:04.212Z,0
2019-01-21T01:40:12.286Z,0
2019-01-21T01:41:20.345Z,0
2019-01-21T01:42:28.391Z,0
2019-01-21T01:43:36.466Z,0
2019-01-21T01:44:44.479Z,0
2019-01-21T01:45:52.564Z,0
2019-01-21T01:47:00.608Z,0
2019-01-21T01:48:08.685Z,0
2019-01-21T01:49:16.731Z,0
2019-01-21T01:50:24.796Z,0
2019-01-21T01:51:32.851Z,0
2019-01-21T01:52:40.898Z,0
2019-01-21T01:53:48.985Z,0
2019-01-21T01:54:57.002Z,0
2019-01-21T01:56:05.069Z,0
2019-01-21T01:57:13.120Z,0
2019-01-21T01:58:21.173Z,0
2019-01-21T01:59:29.233Z,0
2019-01-21T02:00:37.277Z,0
2019-01-21T02:01:45.339Z,0
2019-01-21T02:02:53.381Z,0
2019-01-21T02:04:01.435Z,0
2019-01-21T02:05:09.497Z,0
2019-01-21T02:06:17.555Z,0
2019-01-21T02:07:25.598Z,0
2019-01-21T02:08:33.653Z,0
2019-01-21T02:09:41.719Z,0
2019-01-21T02:10:49.777Z,0
2019-01-21T02:11:57.828Z,0
2019-01-21T02:13:05.891Z,0
2019-01-21T02:14:13.921Z,0
2019-01-21T02:15:22.005Z,0
2019-01-21T02:16:30.052Z,0
2019-01-21T02:17:38.098Z,0
2019-01-21T02:18:46.159Z,0
2019-01-21T02:19:54.187Z,0
2019-01-21T02:21:02.272Z,0
2019-01-21T02:22:10.315Z,0
2019-01-21T02:23:18.369Z,0
2019-01-21T02:24:26.434Z,0
2019-01-21T02:25:34.456Z,0
2019-01-21T02:26:42.536Z,0
2019-01-21T02:27:50.587Z,0
2019-01-21T02:28:58.659Z,0
2019-01-21T02:30:06.694Z,0
2019-01-21T02:31:14.728Z,0
2019-01-21T02:32:22.804Z,0
2019-01-21T02:33:30.867Z,0
2019-01-21T02:34:38.914Z,0
2019-01-21T02:35:46.969Z,0
2019-01-21T02:36:55.035Z,0
2019-01-21T02:38:03.095Z,0
2019-01-21T02:39:11.136Z,0
2019-01-21T02:40:19.190Z,0
2019-01-21T02:41:27.247Z,0
2019-01-21T02:42:35.305Z,0
2019-01-21T02:43:43.345Z,0
2019-01-21T02:44:51.421Z,0
2019-01-21T02:45:59.464Z,0
2019-01-21T02:47:07.522Z,0
2019-01-21T02:48:15.573Z,0
2019-01-21T02:49:23.636Z,0
2019-01-21T02:50:31.684Z,0
2019-01-21T02:51:39.760Z,0
2019-01-21T02:52:47.795Z,0
2019-01-21T02:53:55.841Z,0
2019-01-21T02:55:03.891Z,0
2019-01-21T02:56:12.000Z,0
2019-01-21T02:57:20.004Z,0
2019-01-21T02:58:28.066Z,0
2019-01-21T02:59:36.130Z,0
2019-01-21T03:00:44.155Z,0
2019-01-21T03:01:52.235Z,0
2019-01-21T03:03:00.284Z,0
2019-01-21T03:04:08.339Z,0
2019-01-21T03:05:16.414Z,0
2019-01-21T03:06:24.423Z,0
2019-01-21T03:07:32.500Z,0
2019-01-21T03:08:40.556Z,0
2019-01-21T03:09:48.616Z,0
2019-01-21T03:10:56.658Z,0
2019-01-21T03:12:04.726Z,0
2019-01-21T03:13:12.781Z,0
2019-01-21T03:14:20.839Z,0
2019-01-21T03:15:28.887Z,0
2019-01-21T03:16:36.937Z,0
2019-01-21T03:17:44.985Z,0
2019-01-21T03:18:53.060Z,0
2019-01-21T03:20:01.122Z,0
2019-01-21T03:21:09.162Z,0
2019-01-21T03:22:17.223Z,0
2019-01-21T03:23:25.320Z,0
2019-01-21T03:24:33.318Z,0
2019-01-21T03:25:41.377Z,0
2019-01-21T03:26:49.437Z,0
2019-01-21T03:27:57.488Z,0
2019-01-21T03:29:05.543Z,0
2019-01-21T03:30:13.609Z,0
2019-01-21T03:31:21.662Z,0
2019-01-21T03:32:29.813Z,0
2019-01-21T03:33:37.760Z,0
2019-01-21T03:34:45.851Z,0
2019-01-21T03:35:53.866Z,0
2019-01-21T03:37:01.946Z,0
2019-01-21T03:38:09.994Z,0
2019-01-21T03:39:18.034Z,0
2019-01-21T03:40:26.096Z,0
2019-01-21T03:41:34.110Z,0
2019-01-21T03:42:42.206Z,0
2019-01-21T03:43:50.274Z,0
2019-01-21T03:44:58.308Z,0
2019-01-21T03:46:06.380Z,0
2019-01-21T03:47:14.417Z,0
2019-01-21T03:48:22.458Z,0
2019-01-21T03:49:30.549Z,0
2019-01-21T03:50:38.579Z,0
2019-01-21T03:51:46.641Z,0
2019-01-21T03:52:54.699Z,0
2019-01-21T03:54:02.737Z,0
2019-01-21T03:55:10.817Z,0
2019-01-21T03:56:18.846Z,0
2019-01-21T03:57:26.907Z,0
2019-01-21T03:58:34.963Z,0
2019-01-21T03:59:43.027Z,0
2019-01-21T04:00:51.068Z,0
2019-01-21T04:01:59.136Z,0
2019-01-21T04:03:07.173Z,0
2019-01-21T04:04:15.241Z,0
2019-01-21T04:05:23.299Z,0
2019-01-21T04:06:31.347Z,0
2019-01-21T04:07:39.405Z,0
2019-01-21T04:08:47.458Z,0
2019-01-21T04:09:55.503Z,0
2019-01-21T04:11:03.561Z,0
2019-01-21T04:12:11.615Z,0
2019-01-21T04:13:19.675Z,0
2019-01-21T04:14:27.714Z,0
2019-01-21T04:15:35.775Z,0
2019-01-21T04:16:43.847Z,0
2019-01-21T04:17:51.895Z,0
2019-01-21T04:18:59.975Z,0
2019-01-21T04:20:07.997Z,0
2019-01-21T04:21:16.060Z,0
2019-01-21T04:22:24.087Z,0
2019-01-21T04:23:32.168Z,0
2019-01-21T04:24:40.223Z,0
2019-01-21T04:25:48.265Z,0
2019-01-21T04:26:56.314Z,0
2019-01-21T04:28:04.359Z,0
2019-01-21T04:29:12.427Z,0
2019-01-21T04:30:20.484Z,0
2019-01-21T04:31:28.540Z,0
2019-01-21T04:32:36.592Z,0
2019-01-21T04:33:44.624Z,0
2019-01-21T04:34:52.703Z,0
2019-01-21T04:36:00.763Z,0
2019-01-21T04:37:08.820Z,0
2019-01-21T04:38:16.876Z,0
2019-01-21T04:39:24.921Z,0
2019-01-21T04:40:32.966Z,0
2019-01-21T04:41:41.030Z,0
2019-01-21T04:42:49.071Z,0
2019-01-21T04:43:57.140Z,0
2019-01-21T04:45:05.204Z,0
2019-01-21T04:46:13.251Z,0
2019-01-21T04:47:21.302Z,0
2019-01-21T04:48:33.067Z,0
2019-01-21T04:49:37.427Z,0
2019-01-21T04:50:45.461Z,0
2019-01-21T04:51:53.531Z,0
2019-01-21T04:53:01.591Z,0
2019-01-21T04:54:09.627Z,0
2019-01-21T04:55:17.683Z,0
2019-01-21T04:56:25.743Z,0
2019-01-21T04:57:33.779Z,0
2019-01-21T04:58:41.862Z,0
2019-01-21T04:59:49.906Z,0
2019-01-21T05:00:57.967Z,0
2019-01-21T05:02:06.008Z,0
2019-01-21T05:03:14.057Z,0
2019-01-21T05:04:22.127Z,0
2019-01-21T05:05:30.185Z,0
2019-01-21T05:06:38.234Z,0
2019-01-21T05:07:46.295Z,0
2019-01-21T05:08:54.315Z,0
2019-01-21T05:10:02.406Z,0
2019-01-21T05:11:10.459Z,0
2019-01-21T05:12:18.499Z,0
2019-01-21T05:13:26.566Z,0
2019-01-21T05:14:34.589Z,0
2019-01-21T05:15:42.684Z,0
2019-01-21T05:16:50.741Z,0
2019-01-21T05:17:58.787Z,0
2019-01-21T05:19:06.830Z,0
2019-01-21T05:20:14.879Z,0
2019-01-21T05:21:22.957Z,0
2019-01-21T05:22:30.993Z,0
2019-01-21T05:23:39.052Z,0
2019-01-21T05:24:47.105Z,0
2019-01-21T05:25:55.177Z,0
2019-01-21T05:27:03.217Z,0
2019-01-21T05:28:11.299Z,0
2019-01-21T05:29:19.371Z,0
2019-01-21T05:30:27.397Z,0
2019-01-21T05:31:35.439Z,0
2019-01-21T05:32:44.034Z,0
2019-01-21T05:33:51.537Z,0
2019-01-21T05:34:59.603Z,0
2019-01-21T05:36:07.942Z,0
2019-01-21T05:37:15.705Z,0
2019-01-21T05:38:23.753Z,0
2019-01-21T05:39:31.820Z,0
2019-01-21T05:40:39.871Z,0
2019-01-21T05:41:47.919Z,0
2019-01-21T05:42:55.981Z,0
2019-01-21T05:44:04.018Z,0
2019-01-21T05:45:12.402Z,0
2019-01-21T05:46:20.152Z,0
2019-01-21T05:47:28.204Z,0
2019-01-21T05:48:36.261Z,0
2019-01-21T05:49:44.289Z,0
2019-01-21T05:50:52.373Z,0
2019-01-21T05:52:00.426Z,0
2019-01-21T05:53:08.476Z,0
2019-01-21T05:54:16.520Z,0
2019-01-21T05:55:24.556Z,0
2019-01-21T05:56:32.625Z,0
2019-01-21T05:57:40.696Z,0
2019-01-21T05:58:48.770Z,0
2019-01-21T05:59:56.805Z,0
2019-01-21T06:01:04.853Z,0
2019-01-21T06:02:12.919Z,0
2019-01-21T06:03:20.972Z,0
2019-01-21T06:04:29.679Z,0
2019-01-21T06:05:37.070Z,0
2019-01-21T06:06:45.139Z,0
2019-01-21T06:07:53.534Z,0
2019-01-21T06:09:01.234Z,0
2019-01-21T06:10:09.296Z,0
2019-01-21T06:11:17.353Z,0
2019-01-21T06:12:25.394Z,0
2019-01-21T06:13:33.457Z,0
2019-01-21T06:14:41.504Z,0
2019-01-21T06:15:49.578Z,0
2019-01-21T06:16:57.615Z,0
2019-01-21T06:18:05.663Z,0
2019-01-21T06:19:13.714Z,0
2019-01-21T06:20:21.790Z,0
2019-01-21T06:21:29.841Z,0
2019-01-21T06:22:37.898Z,0
2019-01-21T06:23:45.944Z,0
2019-01-21T06:24:53.975Z,0
2019-01-21T06:26:02.052Z,0
2019-01-21T06:27:10.111Z,0
2019-01-21T06:28:18.162Z,0
2019-01-21T06:29:26.226Z,0
2019-01-21T06:30:34.246Z,0
2019-01-21T06:31:42.355Z,0
2019-01-21T06:32:50.383Z,0
2019-01-21T06:33:58.471Z,0
2019-01-21T06:35:06.495Z,0
2019-01-21T06:36:14.517Z,0
2019-01-21T06:37:22.593Z,0
2019-01-21T06:38:30.654Z,0
2019-01-21T06:39:38.715Z,0
2019-01-21T06:40:46.770Z,0
2019-01-21T06:41:54.794Z,0
2019-01-21T06:43:02.869Z,0
2019-01-21T06:44:10.954Z,0
2019-01-21T06:45:18.973Z,0
2019-01-21T06:46:27.031Z,0
2019-01-21T06:47:35.105Z,0
2019-01-21T06:48:43.140Z,0
2019-01-21T06:49:51.198Z,0
2019-01-21T06:50:59.257Z,0
2019-01-21T06:52:07.301Z,0
2019-01-21T06:53:15.352Z,0
2019-01-21T06:54:23.412Z,0
2019-01-21T06:55:31.467Z,0
2019-01-21T06:56:39.536Z,0
2019-01-21T06:57:47.584Z,0
2019-01-21T06:58:55.628Z,0
2019-01-21T07:00:03.688Z,0
2019-01-21T07:01:11.740Z,0
2019-01-21T07:02:19.799Z,0
2019-01-21T07:03:27.843Z,0
2019-01-21T07:04:35.914Z,0
2019-01-21T07:05:43.942Z,0
2019-01-21T07:08:00.083Z,0
2019-01-21T07:09:08.126Z,5
2019-01-21T07:10:16.212Z,5
2019-01-21T07:11:24.200Z,5
2019-01-21T07:12:32.303Z,5
2019-01-21T07:13:40.348Z,5
2019-01-21T07:14:48.409Z,5
2019-01-21T07:15:56.453Z,5
2019-01-21T07:17:04.477Z,5
2019-01-21T07:18:12.561Z,5
2019-01-21T07:19:20.623Z,10
2019-01-21T07:20:28.673Z,10
2019-01-21T07:21:36.726Z,10
2019-01-21T07:22:44.768Z,10
2019-01-21T07:23:53.096Z,10
2019-01-21T07:25:00.902Z,10
2019-01-21T07:26:08.950Z,15
2019-01-21T07:27:17.009Z,15
2019-01-21T07:28:25.066Z,15
2019-01-21T07:29:33.118Z,15
2019-01-21T07:30:41.172Z,15
2019-01-21T07:31:49.231Z,20
2019-01-21T07:32:57.290Z,20
2019-01-21T07:34:05.342Z,20
2019-01-21T07:35:13.385Z,20
2019-01-21T07:36:21.438Z,20
2019-01-21T07:37:29.545Z,25
2019-01-21T07:38:37.545Z,25
2019-01-21T07:39:45.608Z,25
2019-01-21T07:40:53.667Z,25
2019-01-21T07:42:01.720Z,25
2019-01-21T07:43:09.762Z,30
2019-01-21T07:44:17.828Z,30
2019-01-21T07:45:25.880Z,30
2019-01-21T07:46:33.946Z,30
2019-01-21T07:47:41.982Z,30
2019-01-21T07:48:50.049Z,30
2019-01-21T07:49:58.096Z,35
2019-01-21T07:51:06.162Z,35
2019-01-21T07:52:14.185Z,35
2019-01-21T07:53:22.268Z,35
2019-01-21T07:54:30.313Z,40
2019-01-21T07:55:38.369Z,40
2019-01-21T07:56:46.421Z,40
2019-01-21T07:57:54.447Z,45
2019-01-21T07:59:02.538Z,45
2019-01-21T08:00:10.598Z,45
2019-01-21T08:01:18.643Z,45
2019-01-21T08:02:26.697Z,50
2019-01-21T08:03:34.716Z,50
2019-01-21T08:04:42.803Z,50
2019-01-21T08:05:50.888Z,50
2019-01-21T08:06:58.924Z,55
2019-01-21T08:08:06.975Z,55
2019-01-21T08:09:15.041Z,55
2019-01-21T08:10:23.087Z,55
2019-01-21T08:11:31.155Z,60
2019-01-21T08:12:39.193Z,60
2019-01-21T08:13:47.283Z,60
2019-01-21T08:14:55.305Z,60
2019-01-21T08:16:03.406Z,65
2019-01-21T08:17:11.420Z,65
2019-01-21T08:18:19.477Z,65
2019-01-21T08:19:27.520Z,70
2019-01-21T08:20:35.576Z,70
2019-01-21T08:21:43.642Z,70
2019-01-21T08:22:51.688Z,70
2019-01-21T08:23:59.766Z,75
2019-01-21T08:25:07.788Z,75
2019-01-21T08:26:15.861Z,75
2019-01-21T08:27:23.900Z,75
2019-01-21T08:28:31.950Z,80
2019-01-21T08:29:40.015Z,80
2019-01-21T08:30:48.057Z,80
2019-01-21T08:31:56.135Z,85
2019-01-21T08:33:04.159Z,85
2019-01-21T08:34:12.240Z,85
2019-01-21T08:35:20.297Z,90
2019-01-21T08:36:28.364Z,90
2019-01-21T08:37:36.402Z,95
2019-01-21T08:38:44.423Z,95
2019-01-21T08:39:52.512Z,95
2019-01-21T08:41:00.580Z,95
2019-01-21T08:42:08.621Z,90
2019-01-21T08:43:16.679Z,95
2019-01-21T08:44:24.693Z,95
2019-01-21T08:45:32.797Z,95
2019-01-21T08:46:40.853Z,95
2019-01-21T08:47:48.907Z,100
2019-01-21T08:48:56.952Z,100
2019-01-21T08:50:05.025Z,105
2019-01-21T08:51:13.058Z,105
2019-01-21T08:52:21.126Z,105
2019-01-21T08:53:29.213Z,110
2019-01-21T08:54:37.222Z,110
2019-01-21T08:55:45.279Z,110
2019-01-21T08:56:53.344Z,110
2019-01-21T08:58:01.400Z,110
2019-01-21T08:59:09.456Z,115
2019-01-21T09:00:17.510Z,115
2019-01-21T09:01:25.566Z,115
2019-01-21T09:02:33.621Z,115
2019-01-21T09:03:41.665Z,115
2019-01-21T09:04:49.729Z,120
2019-01-21T09:05:57.771Z,120
2019-01-21T09:07:05.841Z,120
2019-01-21T09:08:13.886Z,120
2019-01-21T09:09:21.950Z,125
2019-01-21T09:10:30.000Z,125
2019-01-21T09:11:38.061Z,125
2019-01-21T09:12:46.124Z,125
2019-01-21T09:13:54.161Z,125
2019-01-21T09:15:02.226Z,130
2019-01-21T09:16:10.282Z,130
2019-01-21T09:17:18.352Z,135
2019-01-21T09:18:26.391Z,135
2019-01-21T09:19:37.288Z,135
2019-01-21T09:20:42.542Z,140
2019-01-21T09:21:50.564Z,140
2019-01-21T09:22:58.627Z,140
2019-01-21T09:24:06.716Z,145
2019-01-21T09:25:14.700Z,145
2019-01-21T09:26:22.787Z,150
2019-01-21T09:27:30.878Z,150
2019-01-21T09:28:38.896Z,150
2019-01-21T09:29:46.950Z,155
2019-01-21T09:30:55.010Z,155
2019-01-21T09:32:03.065Z,155
2019-01-21T09:33:11.118Z,155
2019-01-21T09:34:19.185Z,160
2019-01-21T09:35:27.244Z,160
2019-01-21T09:36:35.289Z,160
2019-01-21T09:37:43.342Z,160
2019-01-21T09:38:51.405Z,160
2019-01-21T09:39:59.471Z,160
2019-01-21T09:41:07.528Z,165
2019-01-21T09:42:15.580Z,165
2019-01-21T09:43:23.632Z,170
2019-01-21T09:44:31.693Z,170
2019-01-21T09:45:39.758Z,170
2019-01-21T09:46:47.815Z,170
2019-01-21T09:47:55.852Z,175
2019-01-21T09:49:03.910Z,175
2019-01-21T09:50:11.982Z,175
2019-01-21T09:51:20.026Z,175
2019-01-21T09:52:28.220Z,175
2019-01-21T09:53:36.151Z,180
2019-01-21T09:54:44.167Z,180
2019-01-21T09:55:52.243Z,180
2019-01-21T09:57:00.320Z,185
2019-01-21T09:58:08.371Z,185
2019-01-21T09:59:16.431Z,190
2019-01-21T10:00:24.452Z,190
2019-01-21T10:01:32.539Z,190
2019-01-21T10:02:40.604Z,195
2019-01-21T10:03:48.652Z,195
2019-01-21T10:04:56.715Z,195
2019-01-21T10:06:04.730Z,195
2019-01-21T10:07:12.824Z,195
2019-01-21T10:08:20.888Z,195
2019-01-21T10:09:28.932Z,195
2019-01-21T10:10:36.985Z,200
2019-01-21T10:11:45.069Z,200
2019-01-21T10:12:53.097Z,205
2019-01-21T10:14:01.149Z,205
2019-01-21T10:15:09.218Z,210
2019-01-21T10:16:17.287Z,215
2019-01-21T10:17:25.348Z,215
2019-01-21T10:18:33.426Z,220
2019-01-21T10:19:41.440Z,225
2019-01-21T10:20:49.819Z,225
2019-01-21T10:21:57.569Z,230
2019-01-21T10:23:05.637Z,230
2019-01-21T10:24:13.647Z,235
2019-01-21T10:25:21.727Z,235
2019-01-21T10:26:29.772Z,235
2019-01-21T10:27:37.854Z,240
2019-01-21T10:28:45.893Z,240
2019-01-21T10:29:53.951Z,245
2019-01-21T10:31:02.014Z,245
2019-01-21T10:32:10.060Z,250
2019-01-21T10:33:18.128Z,250
2019-01-21T10:34:26.196Z,255
2019-01-21T10:35:34.217Z,255
2019-01-21T10:36:42.304Z,255
2019-01-21T10:37:50.354Z,260
2019-01-21T10:38:58.413Z,260
2019-01-21T10:40:07.906Z,260
2019-01-21T10:41:14.498Z,265
2019-01-21T10:42:22.575Z,270
2019-01-21T10:43:30.653Z,275
2019-01-21T10:44:38.705Z,280
2019-01-21T10:45:46.761Z,280
2019-01-21T10:46:54.800Z,285
2019-01-21T10:48:02.863Z,280
2019-01-21T10:49:10.932Z,280
2019-01-21T10:50:18.978Z,280
2019-01-21T10:51:27.035Z,285
2019-01-21T10:52:35.098Z,285
2019-01-21T10:53:43.149Z,290
2019-01-21T10:54:51.208Z,290
2019-01-21T10:55:59.296Z,290
2019-01-21T10:57:07.343Z,295
2019-01-21T10:58:15.392Z,290
2019-01-21T10:59:23.446Z,295
2019-01-21T11:00:31.508Z,295
2019-01-21T11:01:39.561Z,300
2019-01-21T11:02:47.610Z,300
2019-01-21T11:03:55.675Z,305
2019-01-21T11:05:03.732Z,300
2019-01-21T11:06:11.801Z,290
2019-01-21T11:07:19.841Z,285
2019-01-21T11:08:27.909Z,285
2019-01-21T11:09:35.965Z,285
2019-01-21T11:10:44.002Z,285
2019-01-21T11:11:54.014Z,290
2019-01-21T11:13:00.138Z,295
2019-01-21T11:14:12.328Z,295
2019-01-21T11:15:16.262Z,295
2019-01-21T11:16:24.291Z,295
2019-01-21T11:17:32.369Z,300
2019-01-21T11:18:40.437Z,300
2019-01-21T11:19:48.503Z,300
2019-01-21T11:20:56.549Z,300
2019-01-21T11:22:04.577Z,300
2019-01-21T11:23:12.660Z,310
2019-01-21T11:24:20.740Z,305
2019-01-21T11:25:28.787Z,305
2019-01-21T11:26:36.873Z,310
2019-01-21T11:27:44.889Z,305
2019-01-21T11:28:52.986Z,300
2019-01-21T11:30:01.014Z,300
2019-01-21T11:31:09.069Z,300
2019-01-21T11:32:17.125Z,300
2019-01-21T11:33:25.197Z,305
2019-01-21T11:34:33.259Z,300
2019-01-21T11:35:41.308Z,305
2019-01-21T11:36:49.367Z,305
2019-01-21T11:37:57.434Z,305
2019-01-21T11:39:05.481Z,305
2019-01-21T11:40:13.556Z,305
2019-01-21T11:41:21.603Z,310
2019-01-21T11:42:29.656Z,305
2019-01-21T11:43:37.717Z,300
2019-01-21T11:44:45.776Z,300
2019-01-21T11:45:53.814Z,295
2019-01-21T11:47:01.891Z,295
2019-01-21T11:48:09.986Z,295
2019-01-21T11:49:18.006Z,295
2019-01-21T11:50:26.072Z,295
2019-01-21T11:51:34.099Z,295
2019-01-21T11:52:42.193Z,295
2019-01-21T11:53:50.264Z,295
2019-01-21T11:54:58.306Z,300
2019-01-21T11:56:06.376Z,300
2019-01-21T11:57:14.388Z,300
2019-01-21T11:58:22.480Z,300
2019-01-21T11:59:30.562Z,300
2019-01-21T12:00:38.615Z,300
2019-01-21T12:01:46.655Z,300
2019-01-21T12:02:54.684Z,300
2019-01-21T12:04:02.761Z,295
2019-01-21T12:05:10.868Z,295
2019-01-21T12:06:18.886Z,295
2019-01-21T12:07:26.949Z,300
2019-01-21T12:08:35.010Z,295
2019-01-21T12:09:43.064Z,300
2019-01-21T12:10:51.133Z,295
2019-01-21T12:11:59.193Z,295
2019-01-21T12:13:07.251Z,295
2019-01-21T12:14:15.325Z,290
2019-01-21T12:15:23.350Z,295
2019-01-21T12:16:31.431Z,295
2019-01-21T12:17:39.486Z,285
2019-01-21T12:18:47.554Z,285
2019-01-21T12:19:55.603Z,285
2019-01-21T12:21:03.661Z,285
2019-01-21T12:22:11.729Z,280
2019-01-21T12:23:19.778Z,280
2019-01-21T12:24:27.850Z,275
2019-01-21T12:25:35.911Z,275
2019-01-21T12:26:43.939Z,270
2019-01-21T12:27:52.028Z,275
2019-01-21T12:29:00.059Z,265
2019-01-21T12:30:08.140Z,260
2019-01-21T12:31:16.199Z,260
2019-01-21T12:32:24.229Z,260
2019-01-21T12:33:32.299Z,260
2019-01-21T12:34:40.364Z,260
2019-01-21T12:35:49.005Z,260
2019-01-21T12:36:56.490Z,260
2019-01-21T12:38:04.544Z,255
2019-01-21T12:39:12.609Z,255
2019-01-21T12:40:21.014Z,255
2019-01-21T12:41:29.074Z,255
2019-01-21T12:42:37.111Z,255
2019-01-21T12:43:45.168Z,245
2019-01-21T12:44:52.894Z,245
2019-01-21T12:46:00.957Z,245
2019-01-21T12:47:09.016Z,245
2019-01-21T12:48:17.067Z,240
2019-01-21T12:49:25.140Z,240
2019-01-21T12:50:33.189Z,235
2019-01-21T12:51:41.259Z,235
2019-01-21T12:52:49.329Z,235
2019-01-21T12:53:57.384Z,235
2019-01-21T12:55:05.443Z,230
2019-01-21T12:56:13.513Z,230
2019-01-21T12:57:21.557Z,230
2019-01-21T12:58:29.622Z,230
2019-01-21T13:00:45.792Z,225
2019-01-21T13:01:53.774Z,225
2019-01-21T13:03:01.838Z,225
2019-01-21T13:04:09.909Z,220
2019-01-21T13:05:17.975Z,220
2019-01-21T13:06:26.026Z,220
2019-01-21T13:07:34.059Z,220
2019-01-21T13:08:42.179Z,215
2019-01-21T13:09:50.209Z,215
2019-01-21T13:10:58.276Z,215
2019-01-21T13:12:06.328Z,215
2019-01-21T13:13:14.364Z,220
2019-01-21T13:14:22.440Z,220
2019-01-21T13:15:30.510Z,220
2019-01-21T13:16:38.565Z,220
2019-01-21T13:17:46.655Z,220
2019-01-21T13:18:54.651Z,220
2019-01-21T13:20:02.740Z,220
2019-01-21T13:21:10.798Z,220
2019-01-21T13:22:18.864Z,220
2019-01-21T13:23:26.932Z,220
2019-01-21T13:24:34.963Z,215
2019-01-21T13:25:43.023Z,215
2019-01-21T13:26:51.098Z,215
2019-01-21T13:27:59.147Z,215
2019-01-21T13:29:07.237Z,215
2019-01-21T13:30:15.272Z,215
2019-01-21T13:31:23.337Z,215
2019-01-21T13:32:31.389Z,215
2019-01-21T13:33:39.455Z,215
2019-01-21T13:34:47.500Z,215
2019-01-21T13:35:55.575Z,215
2019-01-21T13:37:03.622Z,215
2019-01-21T13:38:11.683Z,215
2019-01-21T13:39:19.738Z,210
2019-01-21T13:40:27.814Z,210
2019-01-21T13:41:35.851Z,210
2019-01-21T13:42:43.898Z,210
2019-01-21T13:43:51.974Z,210
2019-01-21T13:45:00.036Z,210
2019-01-21T13:46:09.212Z,210
2019-01-21T13:47:16.149Z,215
2019-01-21T13:48:24.214Z,210
2019-01-21T13:49:32.294Z,210
2019-01-21T13:50:40.319Z,210
2019-01-21T13:51:48.397Z,205
2019-01-21T13:52:56.453Z,205
2019-01-21T13:54:04.498Z,200
2019-01-21T13:55:12.573Z,200
2019-01-21T13:56:20.644Z,200
2019-01-21T13:57:28.693Z,195
2019-01-21T13:58:36.744Z,190
2019-01-21T13:59:44.783Z,190
2019-01-21T14:00:52.869Z,185
2019-01-21T14:02:00.919Z,185
2019-01-21T14:03:09.007Z,180
2019-01-21T14:04:17.036Z,180
2019-01-21T14:05:30.833Z,175
2019-01-21T14:06:33.150Z,175
2019-01-21T14:07:41.216Z,175
2019-01-21T14:08:49.268Z,175
2019-01-21T14:09:57.342Z,175
2019-01-21T14:11:05.396Z,175
2019-01-21T14:12:13.453Z,175
2019-01-21T14:13:26.359Z,170
2019-01-21T14:14:29.558Z,170
2019-01-21T14:15:37.620Z,170
2019-01-21T14:16:45.728Z,165
2019-01-21T14:17:53.743Z,165
2019-01-21T14:19:01.795Z,165
2019-01-21T14:20:09.866Z,160
2019-01-21T14:21:17.924Z,160
2019-01-21T14:22:25.971Z,160
2019-01-21T14:23:33.995Z,160
2019-01-21T14:24:42.090Z,155
2019-01-21T14:25:50.158Z,150
2019-01-21T14:26:58.200Z,150
2019-01-21T14:28:06.269Z,145
2019-01-21T14:29:14.305Z,145
2019-01-21T14:30:22.375Z,145
2019-01-21T14:31:30.442Z,140
2019-01-21T14:32:38.488Z,140
2019-01-21T14:33:46.556Z,135
2019-01-21T14:34:54.593Z,135
2019-01-21T14:36:02.672Z,130
2019-01-21T14:37:10.731Z,130
2019-01-21T14:38:18.776Z,130
2019-01-21T14:39:26.849Z,130
2019-01-21T14:40:34.931Z,125
2019-01-21T14:41:42.965Z,125
2019-01-21T14:42:51.018Z,120
2019-01-21T14:43:59.108Z,120
2019-01-21T14:45:07.135Z,120
2019-01-21T14:46:15.197Z,115
2019-01-21T14:47:23.254Z,115
2019-01-21T14:48:31.325Z,115
2019-01-21T14:49:39.374Z,110
2019-01-21T14:50:50.470Z,110
2019-01-21T14:51:55.515Z,110
2019-01-21T14:53:03.549Z,105
2019-01-21T14:54:11.624Z,105
2019-01-21T14:55:19.652Z,105
2019-01-21T14:56:27.726Z,100
2019-01-21T14:57:35.778Z,100
2019-01-21T14:58:43.818Z,100
2019-01-21T14:59:51.915Z,95
2019-01-21T15:00:59.984Z,100
2019-01-21T15:02:08.005Z,95
2019-01-21T15:03:16.076Z,95
2019-01-21T15:04:24.103Z,95
2019-01-21T15:05:32.222Z,95
2019-01-21T15:06:40.254Z,90
2019-01-21T15:07:48.281Z,90
2019-01-21T15:08:56.401Z,85
2019-01-21T15:10:04.458Z,85
2019-01-21T15:11:12.549Z,85
2019-01-21T15:12:20.535Z,80
2019-01-21T15:13:28.616Z,80
2019-01-21T15:14:36.631Z,75
2019-01-21T15:15:44.758Z,75
2019-01-21T15:16:52.757Z,75
2019-01-21T15:18:00.864Z,70
2019-01-21T15:19:08.880Z,70
2019-01-21T15:20:17.016Z,65
2019-01-21T15:21:25.066Z,65
2019-01-21T15:22:33.052Z,60
2019-01-21T15:23:41.186Z,60
2019-01-21T15:24:49.217Z,55
2019-01-21T15:25:57.242Z,55
2019-01-21T15:27:05.374Z,55
2019-01-21T15:28:13.333Z,50
2019-01-21T15:29:21.452Z,50
2019-01-21T15:30:29.444Z,50
2019-01-21T15:31:37.563Z,45
2019-01-21T15:32:45.644Z,45
2019-01-21T15:33:53.617Z,45
2019-01-21T15:35:01.843Z,40
2019-01-21T15:36:09.735Z,40
2019-01-21T15:37:17.795Z,40
2019-01-21T15:38:25.877Z,35
2019-01-21T15:39:33.947Z,35
2019-01-21T15:40:41.971Z,35
2019-01-21T15:41:50.008Z,30
2019-01-21T15:42:58.074Z,30
2019-01-21T15:44:06.146Z,30
2019-01-21T15:45:14.164Z,25
2019-01-21T15:46:22.339Z,25
2019-01-21T15:47:30.290Z,25
2019-01-21T15:48:38.353Z,25
2019-01-21T15:49:46.406Z,20
2019-01-21T15:50:54.433Z,20
2019-01-21T15:52:02.559Z,20
2019-01-21T15:53:10.594Z,20
2019-01-21T15:54:18.653Z,15
2019-01-21T15:55:26.708Z,15
2019-01-21T15:56:34.739Z,15
2019-01-21T15:57:42.809Z,15
2019-01-21T15:58:50.866Z,10
2019-01-21T15:59:58.916Z,10
2019-01-21T16:01:06.991Z,10
2019-01-21T16:02:15.030Z,10
2019-01-21T16:03:23.089Z,10
2019-01-21T16:04:31.161Z,10
2019-01-21T16:05:39.353Z,5
2019-01-21T16:06:47.259Z,5
2019-01-21T16:07:55.319Z,5
2019-01-21T16:09:03.365Z,5
2019-01-21T16:10:11.425Z,5
2019-01-21T16:11:19.484Z,5
2019-01-21T16:12:27.579Z,5
2019-01-21T16:13:35.602Z,0
2019-01-21T16:14:43.657Z,0
2019-01-21T16:15:51.708Z,0